Nevada City, CA (95959)

11:04 PM PDT on August 27, 2014 (GMT -0700)
Willow Valley Lodge | Change Station
CLOSE
Current Station
Personal Weather Station
Location: Nevada City, CA
Elevation: 2605 ft
Nearby Weather Stations

Elev 2605 ft 39.27 °N, 121.01 °W | Updated 10 minutes ago

Clear
Clear
64.8 °F
Feels Like 64.8 °F
N
0.0
Wind Variable Wind from SSE

Today
High -- | Low -- °F
--% Chance of Precip.
Yesterday
High -- | Low -- °F
Precip. -- in
6:28 AM 7:42 PM
Waxing Crescent, 6% visible
Pressure 30.16 in
Visibility 10.0 miles
Clouds Clear
Dew Point 53 °F
Humidity 65%
Rainfall 0.00 in
Snow Depth Not available.
UV 0 out of 12
Pollen 8.60 out of 12
Air Quality Not available.
Flu Activity Not available.
METAR KGOO 280600Z AUTO 00000KT 10SM CLR 23/08 A3016 RMK AO1

More Conditions Fewer Conditions

Pressure 30.16 in
Visibility 10.0 miles
Clouds Clear
Dew Point 53 °F
Humidity 65%
Rainfall 0.00 in
Snow Depth Not available.
UV 0 out of 12
Pollen 8.60 out of 12
Air Quality Not available.
Flu Activity Not available.
METAR KGOO 280600Z AUTO 00000KT 10SM CLR 23/08 A3016 RMK AO1

More Conditions Fewer Conditions

10-Day Weather Forecast

Almanac

Astronomy

Aug. 27, 2014 Rise Set
Actual Time 6:28 AM PDT 7:42 PM PDT
Civil Twilight 6:00 AM PDT 8:09 PM PDT
Nautical Twilight 5:27 AM PDT 8:43 PM PDT
Astronomical Twilight 4:52 AM PDT 9:17 PM PDT
Moon 8:28 AM PDT (8/27) 8:38 PM PDT (8/27)
Length of Visible Light 14h 09m
Length of Day
13h 14m
Tomorrow will be 2m 25s shorter.
Waxing Crescent, 6% of the Moon is Illuminated
Aug 28
Waxing Crescent
Sep 2
First Quarter
Sep 8
Full
Sep 15
Last Quarter
Sep 24
New

Yesterday's Extremes

State Highs State Lows

Community

WunderPhotos

Upload Photos

1,747,910 photos uploaded!

Nearby

Air Quality

  Air Quality AQ Index Pollutant
Yesterday Moderate
OZONE
Wednesday Moderate
OZONE
Thursday Moderate
OZONE
Friday Moderate
OZONE
Saturday Moderate
OZONE

Snow Depth

Station Depth Elevation
CSS Lab 2 in 6900 ft
Rubicon #2 0 in 7500 ft
Fallen Leaf 0 in 6300 ft
Echo Peak 0 in 7800 ft
Hagan's Meadow 0 in 8000 ft

Earthquake Activity

City Distance Mag. Time & Date
Napa, California 101 miles 2.6 11:57 AM PDT
2014-08-27
The Geysers, California 102 miles 2.6 7:42 AM PDT
2014-08-27
Napa, California 101 miles 2.5 10:56 AM PDT
2014-08-26
Napa, California 100 miles 3.0 6:45 AM PDT
2014-08-26
Minimum magnitude displayed is 2.5.

Coastal Water Temperatures

Place Temperature
No Stations Reporting

Nearby Weather Stations